Time;durP1;ratioP1;P1;durP2;ratioP2;P2;SDS_P1;SDS_P2;PMS_P1;PMS_P2;Temp;Humidity;BMP_temperature;BMP_pressure;BME280_temperature;BME280_humidity;BME280_pressure;Samples;Min_cycle;Max_cycle;Signal;HPM_P1;HPM_P2
2022/10/19 00:01:23;;;;;;;17.93;3.10;;;;;;;20.77;nan;101601.72;6248046;23;20357;-92
2022/10/19 00:03:53;;;;;;;14.93;2.60;;;;;;;20.66;nan;101587.56;6171778;23;20394;-93
2022/10/19 00:10:08;;;;;;;16.30;3.27;;;;;;;20.65;nan;101576.69;6248071;23;20490;-92
2022/10/19 00:12:36;;;;;;;21.90;2.80;;;;;;;20.65;nan;101580.31;6196362;23;20765;-90
2022/10/19 00:15:06;;;;;;;16.60;3.50;;;;;;;20.67;nan;101577.28;6197364;23;20411;-92
2022/10/19 00:17:34;;;;;;;17.13;2.50;;;;;;;20.69;nan;101580.69;6171837;23;20485;-92
2022/10/19 00:20:02;;;;;;;27.50;3.83;;;;;;;20.64;nan;101569.44;6171997;23;20889;-90
2022/10/19 00:22:30;;;;;;;21.80;3.00;;;;;;;20.71;nan;101583.22;6196113;23;20486;-94
2022/10/19 00:24:57;;;;;;;19.70;2.70;;;;;;;20.72;nan;101579.34;6196213;23;20410;-94
2022/10/19 00:27:28;;;;;;;14.90;3.43;;;;;;;20.71;nan;101567.41;6171663;23;20489;-92
2022/10/19 00:29:56;;;;;;;18.10;2.80;;;;;;;20.74;nan;101571.63;6197808;23;20486;-93
2022/10/19 00:32:24;;;;;;;22.00;3.80;;;;;;;20.63;nan;101560.25;6171580;23;20961;-94
2022/10/19 00:34:52;;;;;;;26.27;3.10;;;;;;;20.72;nan;101576.56;6172050;23;20494;-92
2022/10/19 00:37:20;;;;;;;15.33;2.87;;;;;;;20.69;nan;101573.19;6171962;23;20403;-94
2022/10/19 00:39:47;;;;;;;17.23;3.10;;;;;;;20.69;nan;101570.41;6171447;23;20414;-91
2022/10/19 00:42:15;;;;;;;19.17;2.80;;;;;;;20.69;nan;101570.41;6068159;23;20428;-92
2022/10/19 00:44:45;;;;;;;15.33;2.37;;;;;;;20.74;nan;101574.41;6141607;23;20415;-94
2022/10/19 00:47:12;;;;;;;15.60;2.53;;;;;;;20.69;nan;101553.75;6190725;23;20415;-92
2022/10/19 00:49:42;;;;;;;22.23;3.70;;;;;;;20.73;nan;101558.81;6142068;23;20573;-91
2022/10/19 00:52:14;;;;;;;25.43;2.63;;;;;;;20.74;nan;101563.28;6141365;23;20447;-94
2022/10/19 00:54:42;;;;;;;11.37;2.10;;;;;;;20.74;nan;101554.97;6141991;23;20430;-91
2022/10/19 00:57:10;;;;;;;11.93;2.60;;;;;;;20.66;nan;101543.09;6166076;23;20392;-94
2022/10/19 00:59:40;;;;;;;16.80;3.03;;;;;;;20.64;nan;101533.31;6142974;23;20438;-93
2022/10/19 01:02:08;;;;;;;13.73;3.00;;;;;;;20.77;nan;101548.94;6141941;23;20479;-93
2022/10/19 01:04:38;;;;;;;16.23;3.40;;;;;;;20.73;nan;101561.59;6141374;23;20461;-92
2022/10/19 01:07:06;;;;;;;22.90;3.13;;;;;;;20.74;nan;101564.13;6166243;23;20890;-92
2022/10/19 01:09:34;;;;;;;19.73;3.80;;;;;;;20.71;nan;101555.44;6141810;23;20483;-92
2022/10/19 01:12:31;;;;;;;28.23;4.03;;;;;;;20.73;nan;101564.38;6141025;23;20447;-92
2022/10/19 01:15:12;;;;;;;20.83;3.33;;;;;;;20.70;nan;101562.91;6167352;23;20479;-93
2022/10/19 01:17:55;;;;;;;17.13;2.70;;;;;;;20.71;nan;101555.44;6166821;23;20905;-93
2022/10/19 01:20:46;;;;;;;19.40;3.00;;;;;;;20.67;nan;101557.84;6192244;23;20746;-92
2022/10/19 01:23:22;;;;;;;19.30;2.80;;;;;;;20.74;nan;101563.28;6190581;23;21014;-92
2022/10/19 01:26:14;;;;;;;21.20;3.60;;;;;;;20.74;nan;101566.06;6190167;23;20410;-92
2022/10/19 01:29:17;;;;;;;22.23;2.87;;;;;;;20.73;nan;101567.16;6190404;23;20558;-94
2022/10/19 01:32:26;;;;;;;30.33;2.73;;;;;;;20.66;nan;101554.22;6043206;23;21050;-93
2022/10/19 01:38:50;;;;;;;19.57;2.97;;;;;;;20.65;nan;101546.13;5982263;24;20430;-92
2022/10/19 01:46:13;;;;;;;24.70;3.57;;;;;;;20.64;nan;101550.84;6005097;23;20416;-93
2022/10/19 01:53:23;;;;;;;26.60;3.13;;;;;;;20.60;nan;101543.22;6010135;23;20958;-92
2022/10/19 02:00:33;;;;;;;24.33;3.47;;;;;;;20.59;nan;101536.00;5984101;24;20470;-93
2022/10/19 02:03:02;;;;;;;19.10;3.10;;;;;;;20.51;nan;101528.84;5956087;24;20507;-93
2022/10/19 02:05:31;;;;;;;13.27;2.97;;;;;;;20.54;nan;101531.16;5932566;24;20756;-92
2022/10/19 02:08:07;;;;;;;26.47;4.70;;;;;;;20.54;nan;101527.53;6037066;23;20451;-92
2022/10/19 02:10:36;;;;;;;18.07;3.50;;;;;;;20.46;nan;101509.28;5999229;23;20412;-92
2022/10/19 02:13:04;;;;;;;23.80;2.80;;;;;;;20.52;nan;101519.44;5973050;23;20520;-92
2022/10/19 02:15:32;;;;;;;22.73;3.13;;;;;;;20.50;nan;101516.06;6050345;23;20418;-94
2022/10/19 02:18:00;;;;;;;25.23;3.73;;;;;;;20.49;nan;101503.25;6049726;23;20406;-94
2022/10/19 02:20:28;;;;;;;19.10;2.83;;;;;;;20.49;nan;101500.47;6073084;23;20465;-95
2022/10/19 02:22:58;;;;;;;13.30;2.50;;;;;;;20.49;nan;101500.47;6097039;23;20410;-94
2022/10/19 02:25:25;;;;;;;15.23;2.30;;;;;;;20.53;nan;101506.41;6073283;23;20422;-95
2022/10/19 02:27:53;;;;;;;18.23;2.43;;;;;;;20.52;nan;101504.69;6096538;23;20437;-91
2022/10/19 02:30:21;;;;;;;17.33;3.07;;;;;;;20.48;nan;101489.59;6073506;23;20886;-92
2022/10/19 02:32:49;;;;;;;21.20;3.37;;;;;;;20.47;nan;101483.19;6074229;23;20450;-93
2022/10/19 02:35:16;;;;;;;12.23;2.37;;;;;;;20.48;nan;101472.94;6049169;23;20415;-95
2022/10/19 02:37:44;;;;;;;22.70;3.47;;;;;;;20.51;nan;101483.56;6124393;23;20415;-94
2022/10/19 02:40:15;;;;;;;17.03;2.67;;;;;;;20.48;nan;101467.38;6144308;23;20422;-92
2022/10/19 02:42:49;;;;;;;18.77;3.03;;;;;;;20.53;nan;101475.84;6143179;23;20467;-92
2022/10/19 02:45:31;;;;;;;17.07;3.07;;;;;;;20.50;nan;101471.63;6167050;23;20421;-92
2022/10/19 02:48:22;;;;;;;15.83;3.00;;;;;;;20.50;nan;101474.38;6164413;23;20506;-92
2022/10/19 02:50:50;;;;;;;15.63;3.33;;;;;;;20.47;nan;101462.91;6221962;23;20402;-94
2022/10/19 02:53:21;;;;;;;15.10;2.17;;;;;;;20.42;nan;101446.97;6199086;23;20872;-94
2022/10/19 02:55:49;;;;;;;30.27;4.53;;;;;;;20.42;nan;101446.97;6197571;23;20410;-94
2022/10/19 02:58:16;;;;;;;18.33;3.87;;;;;;;20.47;nan;101460.97;6197979;23;20730;-94
2022/10/19 03:00:44;;;;;;;19.33;3.20;;;;;;;20.44;nan;101453.13;6197395;23;20422;-93
2022/10/19 03:03:12;;;;;;;19.23;3.10;;;;;;;20.42;nan;101451.69;6196782;23;20410;-92
2022/10/19 03:05:39;;;;;;;16.07;2.63;;;;;;;20.41;nan;101445.28;6196290;23;20452;-94
2022/10/19 03:08:11;;;;;;;18.13;2.63;;;;;;;20.45;nan;101443.72;6112360;23;20995;-92
2022/10/19 03:10:38;;;;;;;21.03;3.63;;;;;;;20.42;nan;101449.75;6161137;23;20740;-93
2022/10/19 03:13:05;;;;;;;16.50;3.27;;;;;;;20.46;nan;101455.66;6136537;23;20451;-92
2022/10/19 03:15:33;;;;;;;18.33;3.10;;;;;;;20.39;nan;101441.09;6112591;23;20507;-93
2022/10/19 03:18:00;;;;;;;18.60;2.70;;;;;;;20.37;nan;101433.00;6137014;23;20476;-92
2022/10/19 03:20:28;;;;;;;16.77;3.80;;;;;;;20.45;nan;101446.50;6136787;23;20492;-92
2022/10/19 03:22:56;;;;;;;13.50;2.17;;;;;;;20.42;nan;101441.41;6136593;23;20407;-92
2022/10/19 03:25:23;;;;;;;22.83;2.40;;;;;;;20.38;nan;101434.69;6120878;23;20511;-94
2022/10/19 03:27:51;;;;;;;24.47;3.17;;;;;;;20.44;nan;101439.25;6196975;23;20407;-91
2022/10/19 03:30:19;;;;;;;22.30;3.20;;;;;;;20.38;nan;101428.28;6197224;23;20890;-91
2022/10/19 03:32:46;;;;;;;12.37;3.00;;;;;;;20.34;nan;101408.44;6196254;23;20446;-94
2022/10/19 03:35:14;;;;;;;13.40;2.70;;;;;;;20.33;nan;101409.53;6221210;23;20411;-92
2022/10/19 03:37:41;;;;;;;17.50;2.70;;;;;;;20.34;nan;101398.19;6197063;23;20398;-92
2022/10/19 03:40:09;;;;;;;15.57;2.77;;;;;;;20.45;nan;101413.16;6196988;23;20468;-92
2022/10/19 03:42:37;;;;;;;13.10;2.63;;;;;;;20.45;nan;101424.28;6196809;23;20403;-92
2022/10/19 03:45:06;;;;;;;15.67;2.40;;;;;;;20.42;nan;101408.09;6197193;23;20482;-94
2022/10/19 03:47:33;;;;;;;14.80;2.43;;;;;;;20.47;nan;101408.22;6196694;23;20517;-94
2022/10/19 03:53:43;;;;;;;14.83;2.97;;;;;;;20.48;nan;101400.72;6248169;23;20410;-92
2022/10/19 03:56:19;;;;;;;24.47;3.00;;;;;;;20.56;nan;101423.44;6197409;23;20426;-92
2022/10/19 03:58:47;;;;;;;20.93;2.87;;;;;;;20.51;nan;101417.75;6247106;23;20964;-93
2022/10/19 04:01:19;;;;;;;23.53;2.80;;;;;;;20.57;nan;101433.47;6197860;23;20478;-93
2022/10/19 04:03:47;;;;;;;29.77;4.23;;;;;;;20.47;nan;101422.09;6198595;23;20486;-94
2022/10/19 04:06:16;;;;;;;20.87;2.97;;;;;;;20.58;nan;101440.72;6197599;23;20897;-93
2022/10/19 04:08:47;;;;;;;19.03;2.83;;;;;;;20.62;nan;101432.72;6199053;23;20399;-94
2022/10/19 04:11:16;;;;;;;14.07;2.30;;;;;;;20.60;nan;101424.63;6196485;23;20433;-94
2022/10/19 04:13:49;;;;;;;19.50;3.07;;;;;;;20.63;nan;101421.34;6222142;23;20513;-93
2022/10/19 04:16:16;;;;;;;19.57;2.80;;;;;;;20.60;nan;101427.38;6197253;23;20399;-92
2022/10/19 04:18:44;;;;;;;23.77;3.00;;;;;;;20.53;nan;101403.63;6196996;23;20418;-95
2022/10/19 04:21:24;;;;;;;23.70;3.20;;;;;;;20.59;nan;101414.59;6196364;23;20426;-95
2022/10/19 04:23:52;;;;;;;26.27;3.43;;;;;;;20.64;nan;101405.53;6222305;23;20528;-94
2022/10/19 04:26:22;;;;;;;17.93;3.27;;;;;;;20.61;nan;101400.47;6197385;23;20410;-92
2022/10/19 04:28:52;;;;;;;16.53;3.10;;;;;;;20.62;nan;101419.66;6221744;23;20411;-93
2022/10/19 04:31:22;;;;;;;20.80;3.50;;;;;;;20.63;nan;101421.34;6195433;23;20734;-93
2022/10/19 04:33:50;;;;;;;33.87;3.50;;;;;;;20.58;nan;101412.09;6221875;23;20442;-94
2022/10/19 04:36:18;;;;;;;21.50;2.90;;;;;;;20.60;nan;101410.72;6197450;23;20722;-92
2022/10/19 04:38:46;;;;;;;14.80;2.93;;;;;;;20.61;nan;101414.34;6196920;23;20402;-94
2022/10/19 04:41:15;;;;;;;31.40;3.47;;;;;;;20.55;nan;101399.53;6197084;23;20809;-94
2022/10/19 04:43:46;;;;;;;29.00;3.00;;;;;;;20.60;nan;101421.84;6221624;23;20996;-93
2022/10/19 04:50:14;;;;;;;17.80;3.30;;;;;;;20.55;nan;101413.41;6260898;22;20468;-94
2022/10/19 04:52:43;;;;;;;24.10;3.40;;;;;;;20.58;nan;101426.81;6141853;23;20763;-94
2022/10/19 04:55:12;;;;;;;26.67;3.40;;;;;;;20.52;nan;101408.34;6142092;23;20404;-95
2022/10/19 04:57:39;;;;;;;24.07;3.47;;;;;;;20.55;nan;101430.06;6166612;23;20447;-94
2022/10/19 05:00:08;;;;;;;25.70;3.60;;;;;;;20.58;nan;101429.59;6142197;23;20400;-92
2022/10/19 05:02:37;;;;;;;21.87;3.40;;;;;;;20.55;nan;101432.00;6141581;23;20407;-94
2022/10/19 05:05:04;;;;;;;17.70;3.70;;;;;;;20.58;nan;101443.50;6166368;23;20487;-94
2022/10/19 05:07:32;;;;;;;24.13;3.30;;;;;;;20.55;nan;101443.97;6142097;23;20482;-92
2022/10/19 05:10:00;;;;;;;24.00;3.43;;;;;;;20.59;nan;101447.91;6141747;23;20415;-92
2022/10/19 05:12:28;;;;;;;16.33;2.60;;;;;;;20.48;nan;101440.47;6142265;23;20486;-91
2022/10/19 05:14:55;;;;;;;19.87;2.50;;;;;;;20.56;nan;101456.78;6141595;23;20727;-94
2022/10/19 05:17:23;;;;;;;18.63;3.03;;;;;;;20.54;nan;101445.06;6166043;23;20410;-94
2022/10/19 05:19:50;;;;;;;23.67;4.10;;;;;;;20.57;nan;101447.34;6141855;23;20411;-94
2022/10/19 05:22:18;;;;;;;23.83;3.37;;;;;;;20.51;nan;101433.56;6130316;23;20404;-95
2022/10/19 05:24:46;;;;;;;27.90;3.43;;;;;;;20.51;nan;101425.25;6141761;23;20421;-92
2022/10/19 05:27:14;;;;;;;23.83;2.60;;;;;;;20.57;nan;101433.47;6141992;23;20802;-92
2022/10/19 05:29:41;;;;;;;33.77;5.43;;;;;;;20.59;nan;101436.81;6142257;23;20448;-94
2022/10/19 05:32:09;;;;;;;20.47;3.70;;;;;;;20.60;nan;101435.72;6165475;23;20464;-94
2022/10/19 05:34:36;;;;;;;15.53;2.70;;;;;;;20.60;nan;101437.66;6141484;23;20435;-92
2022/10/19 05:37:04;;;;;;;26.93;3.53;;;;;;;20.64;nan;101428.59;6141093;23;20415;-92
2022/10/19 05:39:33;;;;;;;19.00;2.87;;;;;;;20.63;nan;101438.03;6141516;23;20734;-95
2022/10/19 05:42:00;;;;;;;12.83;2.40;;;;;;;20.63;nan;101440.81;6166346;23;20407;-92
2022/10/19 05:44:28;;;;;;;13.97;2.40;;;;;;;20.63;nan;101426.91;6141256;23;20412;-94
2022/10/19 05:46:55;;;;;;;19.43;3.30;;;;;;;20.69;nan;101431.50;6141826;23;20418;-94
2022/10/19 05:49:23;;;;;;;15.23;3.20;;;;;;;20.62;nan;101419.66;6141577;23;20407;-94
2022/10/19 05:51:50;;;;;;;14.40;2.33;;;;;;;20.69;nan;101430.66;6141472;23;20510;-92
2022/10/19 05:54:18;;;;;;;30.33;3.87;;;;;;;20.63;nan;101413.03;6140996;23;20507;-92
2022/10/19 05:56:48;;;;;;;16.10;2.57;;;;;;;20.68;nan;101421.47;6143210;23;20514;-92
2022/10/19 05:59:18;;;;;;;25.53;2.70;;;;;;;20.62;nan;101400.22;6141870;23;20499;-95
2022/10/19 06:05:36;;;;;;;17.27;3.33;;;;;;;20.61;nan;101394.91;6207716;23;20395;-92
2022/10/19 06:08:04;;;;;;;15.70;2.50;;;;;;;20.65;nan;101408.06;6166049;23;20450;-95
2022/10/19 06:10:31;;;;;;;16.33;2.77;;;;;;;20.59;nan;101392.38;6136611;23;20412;-94
2022/10/19 06:13:00;;;;;;;16.27;2.93;;;;;;;20.67;nan;101405.03;6157508;23;20550;-95
2022/10/19 06:15:32;;;;;;;22.10;2.67;;;;;;;20.56;nan;101392.88;6164958;23;20422;-95
2022/10/19 06:18:05;;;;;;;21.67;2.93;;;;;;;20.65;nan;101412.78;6166795;23;20414;-95
2022/10/19 06:20:38;;;;;;;17.33;2.80;;;;;;;20.63;nan;101415.81;6166905;23;20499;-94
2022/10/19 06:23:06;;;;;;;23.97;2.60;;;;;;;20.61;nan;101400.47;6142844;23;20403;-94
2022/10/19 06:30:06;;;;;;;15.87;2.30;;;;;;;20.72;nan;101418.22;6216588;23;20427;-92
2022/10/19 06:36:29;;;;;;;18.83;2.13;;;;;;;20.68;nan;101409.53;6216683;23;20673;-92
2022/10/19 06:42:38;;;;;;;20.80;3.10;;;;;;;20.63;nan;101390.78;6218491;23;20402;-92
2022/10/19 06:45:26;;;;;;;15.33;2.10;;;;;;;20.71;nan;101405.41;6142557;23;20404;-94
2022/10/19 06:48:00;;;;;;;13.23;2.83;;;;;;;20.74;nan;101404.94;6171587;23;20890;-92
2022/10/19 06:50:31;;;;;;;18.23;3.20;;;;;;;20.75;nan;101401.91;6169352;23;20519;-92
2022/10/19 06:52:58;;;;;;;21.10;3.17;;;;;;;20.76;nan;101405.53;6168385;23;20913;-94
2022/10/19 06:55:26;;;;;;;21.07;2.70;;;;;;;20.75;nan;101406.63;6197864;23;20784;-95
2022/10/19 06:57:54;;;;;;;17.17;2.43;;;;;;;20.70;nan;101399.00;6197070;23;20414;-92
2022/10/19 07:00:22;;;;;;;23.90;3.10;;;;;;;20.71;nan;101402.63;6196845;23;20858;-94
2022/10/19 07:02:50;;;;;;;20.20;2.73;;;;;;;20.72;nan;101390.44;6197372;23;20402;-94
2022/10/19 07:05:18;;;;;;;16.00;2.33;;;;;;;20.80;nan;101415.03;6221945;23;20418;-92
2022/10/19 07:07:46;;;;;;;18.77;3.47;;;;;;;20.84;nan;101417.09;6196854;23;20398;-94
2022/10/19 07:10:16;;;;;;;28.13;2.90;;;;;;;20.78;nan;101406.97;6197563;23;20410;-92
2022/10/19 07:12:44;;;;;;;15.23;2.30;;;;;;;20.83;nan;101420.09;6221709;23;20444;-92
2022/10/19 07:15:12;;;;;;;17.60;2.90;;;;;;;20.80;nan;101415.03;6196773;23;20414;-94
2022/10/19 07:17:40;;;;;;;15.50;2.43;;;;;;;20.84;nan;101414.31;6102126;23;20901;-93
2022/10/19 07:20:09;;;;;;;17.33;2.60;;;;;;;20.86;nan;101408.50;6078270;23;20418;-93
2022/10/19 07:22:39;;;;;;;17.13;2.37;;;;;;;20.93;nan;101414.78;6079583;23;20493;-93
2022/10/19 07:25:10;;;;;;;14.40;2.63;;;;;;;20.89;nan;101403.31;6079034;23;20414;-94
2022/10/19 07:27:39;;;;;;;16.87;2.53;;;;;;;20.91;nan;101390.00;6054737;23;20809;-93
2022/10/19 07:30:07;;;;;;;20.40;3.00;;;;;;;20.98;nan;101395.41;6078270;23;20852;-92
2022/10/19 07:32:35;;;;;;;13.83;2.13;;;;;;;20.98;nan;101407.38;6054859;23;20488;-93
2022/10/19 07:35:03;;;;;;;15.63;2.77;;;;;;;20.90;nan;101398.59;6100448;23;20999;-93
2022/10/19 07:37:32;;;;;;;19.33;3.07;;;;;;;21.02;nan;101421.63;6197273;23;20470;-96
2022/10/19 07:40:00;;;;;;;21.27;3.17;;;;;;;21.02;nan;101413.28;6196612;23;20417;-95
2022/10/19 07:42:29;;;;;;;17.93;2.57;;;;;;;21.08;nan;101417.88;6196802;23;20418;-95
2022/10/19 07:49:38;;;;;;;18.33;3.10;;;;;;;21.18;nan;101445.88;6248410;23;20407;-93
2022/10/19 07:52:07;;;;;;;16.60;3.20;;;;;;;21.18;nan;101445.00;6247550;23;20765;-95
2022/10/19 07:54:35;;;;;;;22.27;2.10;;;;;;;21.26;nan;101462.19;6222781;23;20549;-93
2022/10/19 07:57:03;;;;;;;16.63;2.47;;;;;;;21.25;nan;101454.09;6197670;23;20835;-95
2022/10/19 07:59:30;;;;;;;13.50;2.07;;;;;;;21.25;nan;101449.38;6197352;23;20451;-95
2022/10/19 08:02:01;;;;;;;30.40;3.10;;;;;;;21.22;nan;101437.91;6197151;23;21005;-95
2022/10/19 08:04:29;;;;;;;17.90;2.80;;;;;;;21.25;nan;101451.31;6223002;23;20430;-95
2022/10/19 08:07:17;;;;;;;13.57;2.27;;;;;;;21.31;nan;101465.09;6205896;23;20402;-95
2022/10/19 08:09:45;;;;;;;14.97;3.13;;;;;;;21.26;nan;101453.84;6197269;23;20395;-93
2022/10/19 08:12:20;;;;;;;24.83;2.57;;;;;;;21.32;nan;101464.00;6200821;23;20458;-94
2022/10/19 08:14:51;;;;;;;17.87;2.70;;;;;;;21.33;nan;101471.25;6198778;23;21015;-95
2022/10/19 08:17:19;;;;;;;33.37;11.37;;;;;;;21.42;nan;101476.41;6197835;23;20477;-95
2022/10/19 08:19:47;;;;;;;22.80;5.70;;;;;;;21.47;nan;101476.50;6196842;23;20419;-95
2022/10/19 08:22:14;;;;;;;20.93;7.73;;;;;;;21.36;nan;101442.91;6196854;23;20411;-96
2022/10/19 08:24:42;;;;;;;31.20;14.37;;;;;;;21.54;nan;101468.88;6197195;23;20743;-93
2022/10/19 08:27:10;;;;;;;52.13;33.47;;;;;;;21.53;nan;101451.34;6198116;23;20458;-93
2022/10/19 08:29:39;;;;;;;86.47;64.43;;;;;;;21.57;nan;101465.56;6197813;23;20441;-95
2022/10/19 08:32:07;;;;;;;77.00;58.13;;;;;;;21.61;nan;101466.75;6196857;23;20415;-93
2022/10/19 08:34:35;;;;;;;28.83;13.67;;;;;;;21.63;nan;101482.13;6197073;23;20435;-96
2022/10/19 08:37:03;;;;;;;23.90;9.40;;;;;;;21.75;nan;101479.28;6197277;23;20410;-95
2022/10/19 08:39:40;;;;;;;18.03;7.20;;;;;;;21.77;nan;101485.44;6224876;23;20746;-93
2022/10/19 08:42:19;;;;;;;34.40;6.93;;;;;;;21.88;nan;101478.97;6197508;23;20513;-95
2022/10/19 08:45:17;;;;;;;29.67;8.97;;;;;;;21.98;nan;101484.72;6197529;23;20499;-95
2022/10/19 08:48:10;;;;;;;21.77;8.13;;;;;;;22.07;nan;101499.09;6225732;23;20408;-95
2022/10/19 08:50:41;;;;;;;28.53;11.57;;;;;;;22.04;nan;101482.91;6246871;23;20446;-95
2022/10/19 08:57:26;;;;;;;28.53;8.63;;;;;;;22.35;nan;101517.66;6247667;23;20849;-92
2022/10/19 09:00:13;;;;;;;22.40;9.40;;;;;;;22.38;nan;101500.44;6246350;23;20481;-93
2022/10/19 09:02:52;;;;;;;36.63;9.70;;;;;;;22.39;nan;101497.41;6199477;23;20542;-95
2022/10/19 09:05:30;;;;;;;23.00;8.00;;;;;;;22.53;nan;101520.19;6246193;23;20766;-93
2022/10/19 09:07:58;;;;;;;36.63;9.90;;;;;;;22.53;nan;101516.56;6220927;23;20406;-93
2022/10/19 09:10:28;;;;;;;34.67;11.60;;;;;;;22.55;nan;101522.72;6196259;23;20498;-93
2022/10/19 09:13:04;;;;;;;30.40;10.93;;;;;;;22.55;nan;101517.16;6196536;23;20485;-95
2022/10/19 09:15:43;;;;;;;28.83;8.30;;;;;;;22.54;nan;101521.88;6196051;23;20492;-93
2022/10/19 09:18:18;;;;;;;28.73;5.80;;;;;;;22.55;nan;101526.34;6220584;23;20406;-93
2022/10/19 09:20:48;;;;;;;21.43;4.27;;;;;;;22.56;nan;101522.47;6221526;23;20414;-94
2022/10/19 09:23:39;;;;;;;24.40;4.20;;;;;;;22.54;nan;101521.03;6197015;23;20483;-94
2022/10/19 09:30:17;;;;;;;47.10;22.63;;;;;;;22.65;nan;101534.06;6257519;23;20406;-93
2022/10/19 09:32:45;;;;;;;25.60;5.40;;;;;;;22.70;nan;101539.72;6221047;23;20414;-96
2022/10/19 09:35:26;;;;;;;21.97;5.63;;;;;;;22.68;nan;101531.59;6196481;23;20747;-95
2022/10/19 09:37:54;;;;;;;15.60;3.80;;;;;;;22.63;nan;101512.00;6222251;23;20748;-93
2022/10/19 09:40:49;;;;;;;20.90;5.77;;;;;;;22.75;nan;101526.69;6197075;23;20414;-95
2022/10/19 09:43:19;;;;;;;19.57;6.17;;;;;;;22.80;nan;101519.53;6226212;23;20845;-94
2022/10/19 09:45:56;;;;;;;33.10;8.40;;;;;;;22.80;nan;101511.16;6198160;23;20514;-93
2022/10/19 09:48:38;;;;;;;29.60;10.20;;;;;;;22.72;nan;101495.69;6198094;23;20449;-96
2022/10/19 09:51:12;;;;;;;24.40;8.60;;;;;;;22.79;nan;101512.25;6198996;23;20437;-95
2022/10/19 09:54:21;;;;;;;24.90;7.30;;;;;;;22.69;nan;101497.06;6246478;23;20421;-94
2022/10/19 09:56:52;;;;;;;24.53;5.67;;;;;;;22.80;nan;101516.75;6246761;23;20545;-93
2022/10/19 09:59:22;;;;;;;32.17;6.73;;;;;;;22.78;nan;101502.22;6196485;23;20421;-94
2022/10/19 10:02:13;;;;;;;12.43;2.50;;;;;;;22.77;nan;101498.59;6198095;23;20406;-96
2022/10/19 10:04:44;;;;;;;22.97;3.60;;;;;;;22.81;nan;101498.91;6222172;23;20473;-94
2022/10/19 10:07:16;;;;;;;23.27;3.03;;;;;;;22.81;nan;101496.13;6222576;23;20441;-93
2022/10/19 10:09:44;;;;;;;13.47;3.00;;;;;;;22.92;nan;101497.94;6197012;23;20469;-94
2022/10/19 10:12:13;;;;;;;13.00;2.07;;;;;;;22.88;nan;101486.50;6196662;23;20472;-95
2022/10/19 10:18:28;;;;;;;20.53;3.37;;;;;;;23.01;nan;101477.75;6249380;23;20358;-93
2022/10/19 10:21:00;;;;;;;17.30;2.67;;;;;;;23.05;nan;101475.28;6198064;23;20414;-96
2022/10/19 10:24:09;;;;;;;19.73;3.47;;;;;;;23.20;nan;101469.06;6222583;23;20771;-93
2022/10/19 10:27:04;;;;;;;31.17;8.60;;;;;;;23.37;nan;101467.03;6222688;23;20411;-95
2022/10/19 10:29:36;;;;;;;26.80;8.43;;;;;;;23.58;nan;101482.94;6223143;23;20414;-93
2022/10/19 10:32:18;;;;;;;29.83;9.20;;;;;;;23.77;nan;101497.38;6197689;23;20723;-94
2022/10/19 10:35:01;;;;;;;23.27;4.93;;;;;;;23.83;nan;101482.34;6223008;23;20917;-93
2022/10/19 10:37:34;;;;;;;18.77;4.23;;;;;;;23.86;nan;101476.22;6197762;23;20460;-94
2022/10/19 10:40:02;;;;;;;20.67;3.53;;;;;;;23.80;nan;101468.91;6247111;23;20429;-96
2022/10/19 10:42:40;;;;;;;15.97;3.37;;;;;;;23.80;nan;101474.50;6198747;23;20421;-93
2022/10/19 10:45:36;;;;;;;27.53;4.33;;;;;;;23.80;nan;101491.25;6199180;23;20417;-93
2022/10/19 10:48:13;;;;;;;29.37;4.90;;;;;;;23.83;nan;101490.75;6198939;23;20410;-95
2022/10/19 10:50:40;;;;;;;16.73;3.30;;;;;;;23.81;nan;101469.75;6221841;23;20434;-92
2022/10/19 10:53:35;;;;;;;16.83;3.07;;;;;;;23.86;nan;101461.44;6197096;23;20413;-95
2022/10/19 10:56:05;;;;;;;23.07;2.80;;;;;;;23.93;nan;101479.66;6222326;23;20442;-95
2022/10/19 10:58:47;;;;;;;16.73;3.10;;;;;;;23.80;nan;101480.09;6222251;23;20390;-93
2022/10/19 11:01:21;;;;;;;15.97;2.73;;;;;;;23.70;nan;101472.44;6224064;23;20481;-93
2022/10/19 11:04:02;;;;;;;12.83;2.60;;;;;;;23.56;nan;101478.72;6197968;23;20537;-93
2022/10/19 11:06:33;;;;;;;22.97;3.50;;;;;;;23.47;nan;101489.47;6197689;23;20413;-96
2022/10/19 11:09:25;;;;;;;14.50;2.83;;;;;;;23.46;nan;101496.16;6222009;23;20414;-96
2022/10/19 11:11:54;;;;;;;18.67;3.23;;;;;;;23.37;nan;101469.81;6197967;23;20779;-95
2022/10/19 11:14:45;;;;;;;24.73;2.90;;;;;;;23.40;nan;101486.88;6198365;23;20513;-92
2022/10/19 11:17:33;;;;;;;15.53;2.10;;;;;;;23.42;nan;101501.41;6225573;23;20422;-95
2022/10/19 11:20:00;;;;;;;18.33;3.37;;;;;;;23.44;nan;101498.38;6197094;23;20469;-93
2022/10/19 11:22:35;;;;;;;16.03;2.97;;;;;;;23.47;nan;101480.25;6197058;23;20410;-95
2022/10/19 11:25:25;;;;;;;21.80;3.67;;;;;;;23.52;nan;101488.72;6102274;23;20525;-95
2022/10/19 11:28:30;;;;;;;22.10;3.60;;;;;;;23.51;nan;101486.97;6101693;23;20414;-96
2022/10/19 11:31:15;;;;;;;17.50;2.97;;;;;;;23.50;nan;101457.38;6102256;23;20558;-93
2022/10/19 11:34:16;;;;;;;23.27;3.07;;;;;;;23.62;nan;101461.78;6057052;23;20410;-95
2022/10/19 11:37:12;;;;;;;13.07;2.73;;;;;;;23.74;nan;101456.00;6102021;23;20417;-95
2022/10/19 11:40:02;;;;;;;19.77;4.00;;;;;;;23.81;nan;101436.25;6102036;23;20506;-93
2022/10/19 11:46:31;;;;;;;26.43;8.83;;;;;;;23.97;nan;101419.38;6126900;23;20374;-93
2022/10/19 11:49:21;;;;;;;20.17;6.30;;;;;;;23.91;nan;101428.81;6125940;23;20486;-95
2022/10/19 11:52:03;;;;;;;22.60;3.90;;;;;;;23.93;nan;101429.38;6197656;23;20472;-93
2022/10/19 11:55:09;;;;;;;17.67;3.73;;;;;;;23.97;nan;101396.19;6220972;23;20446;-94
2022/10/19 11:57:47;;;;;;;24.97;4.10;;;;;;;24.09;nan;101413.59;6245992;23;20410;-93
2022/10/19 12:04:37;;;;;;;15.80;4.63;;;;;;;24.20;nan;101407.00;6248602;23;20350;-93
2022/10/19 12:11:27;;;;;;;25.00;6.03;;;;;;;24.14;nan;101415.59;6248441;23;20350;-93
2022/10/19 12:14:12;;;;;;;18.03;3.40;;;;;;;24.03;nan;101390.38;6247747;23;20460;-95
2022/10/19 12:16:42;;;;;;;19.40;2.83;;;;;;;24.13;nan;101405.53;6198483;23;20410;-95
2022/10/19 12:19:20;;;;;;;15.77;2.53;;;;;;;24.17;nan;101401.09;6197910;23;20718;-94
2022/10/19 12:25:34;;;;;;;23.60;3.33;;;;;;;24.16;nan;101377.06;6248192;23;20401;-93
2022/10/19 12:28:03;;;;;;;20.63;2.90;;;;;;;24.14;nan;101391.28;6221136;23;20410;-93
2022/10/19 12:30:31;;;;;;;17.20;2.80;;;;;;;24.04;nan;101389.28;6221583;23;20403;-93
2022/10/19 12:33:21;;;;;;;19.03;3.17;;;;;;;23.98;nan;101389.50;6197011;23;20406;-93
2022/10/19 12:36:08;;;;;;;17.27;3.30;;;;;;;23.77;nan;101380.94;6245535;23;20442;-93
2022/10/19 12:39:09;;;;;;;21.53;3.10;;;;;;;23.58;nan;101381.59;6245817;23;20407;-95
2022/10/19 12:42:27;;;;;;;18.63;2.97;;;;;;;23.34;nan;101367.94;6245860;23;20437;-93
2022/10/19 12:45:17;;;;;;;23.60;3.40;;;;;;;23.21;nan;101364.75;6230494;23;20485;-94
2022/10/19 12:48:18;;;;;;;29.27;3.80;;;;;;;23.17;nan;101353.25;6220559;23;20410;-93
2022/10/19 12:50:48;;;;;;;13.43;2.60;;;;;;;23.08;nan;101360.44;6130144;23;20529;-92
2022/10/19 12:53:24;;;;;;;17.27;3.17;;;;;;;22.97;nan;101348.31;6154756;23;20413;-92
2022/10/19 12:56:08;;;;;;;94.43;39.70;;;;;;;22.84;nan;101353.44;6131164;23;20443;-94
2022/10/19 12:58:47;;;;;;;141.10;69.77;;;;;;;22.90;nan;101371.94;6132375;23;20797;-92
2022/10/19 13:01:42;;;;;;;87.87;44.63;;;;;;;22.81;nan;101353.97;6106143;23;20420;-92
2022/10/19 13:04:11;;;;;;;45.73;19.03;;;;;;;22.86;nan;101356.81;6107118;23;20405;-95
2022/10/19 13:06:43;;;;;;;26.50;8.30;;;;;;;22.86;nan;101346.50;6106483;23;20413;-94
2022/10/19 13:09:36;;;;;;;29.87;8.03;;;;;;;22.85;nan;101322.53;6107399;23;20401;-93
2022/10/19 13:12:13;;;;;;;26.10;8.47;;;;;;;23.05;nan;101338.66;6133707;23;20405;-93
2022/10/19 13:15:01;;;;;;;34.10;7.93;;;;;;;23.11;nan;101315.25;6010076;23;20468;-95
2022/10/19 13:17:53;;;;;;;19.80;5.90;;;;;;;23.25;nan;101329.66;6010364;23;20477;-92
2022/10/19 13:20:23;;;;;;;34.40;4.83;;;;;;;23.39;nan;101334.53;6010434;23;20440;-93
2022/10/19 13:23:12;;;;;;;30.33;5.23;;;;;;;23.50;nan;101323.44;6009937;23;20799;-93